sensor_id;sensor_type;location;lat;lon;timestamp;temperature;humidity
54516;DHT22;40422;45.892;4.738;2023-01-10T04:00:56;6.00;99.90
54516;DHT22;40422;45.892;4.738;2023-01-10T04:03:22;6.00;99.90
54516;DHT22;40422;45.892;4.738;2023-01-10T04:05:47;6.00;99.90
54516;DHT22;40422;45.892;4.738;2023-01-10T04:08:13;6.00;99.90
54516;DHT22;40422;45.892;4.738;2023-01-10T04:10:39;6.00;99.90
54516;DHT22;40422;45.892;4.738;2023-01-10T04:13:04;6.10;99.90
54516;DHT22;40422;45.892;4.738;2023-01-10T04:15:30;6.10;99.90
54516;DHT22;40422;45.892;4.738;2023-01-10T04:17:57;6.10;99.90
54516;DHT22;40422;45.892;4.738;2023-01-10T04:20:23;6.10;99.90
54516;DHT22;40422;45.892;4.738;2023-01-10T04:22:52;6.10;99.90
54516;DHT22;40422;45.892;4.738;2023-01-10T04:25:19;6.10;99.90
54516;DHT22;40422;45.892;4.738;2023-01-10T04:27:48;6.20;99.90
54516;DHT22;40422;45.892;4.738;2023-01-10T04:30:13;6.10;99.90
54516;DHT22;40422;45.892;4.738;2023-01-10T04:32:39;6.10;99.90
54516;DHT22;40422;45.892;4.738;2023-01-10T04:35:05;6.10;99.90
54516;DHT22;40422;45.892;4.738;2023-01-10T04:37:31;6.10;99.90
54516;DHT22;40422;45.892;4.738;2023-01-10T04:39:56;6.10;99.90
54516;DHT22;40422;45.892;4.738;2023-01-10T04:42:22;6.10;99.90
54516;DHT22;40422;45.892;4.738;2023-01-10T04:44:47;6.00;99.90
54516;DHT22;40422;45.892;4.738;2023-01-10T04:47:13;6.00;99.90
54516;DHT22;40422;45.892;4.738;2023-01-10T04:49:39;6.00;99.90
54516;DHT22;40422;45.892;4.738;2023-01-10T04:52:04;6.00;99.90
54516;DHT22;40422;45.892;4.738;2023-01-10T04:54:30;5.90;99.90
54516;DHT22;40422;45.892;4.738;2023-01-10T04:56:55;5.90;99.90
54516;DHT22;40422;45.892;4.738;2023-01-10T04:59:21;5.80;99.90
54516;DHT22;40422;45.892;4.738;2023-01-10T05:01:47;5.80;99.90
54516;DHT22;40422;45.892;4.738;2023-01-10T05:04:13;5.80;99.90
54516;DHT22;40422;45.892;4.738;2023-01-10T05:06:38;5.80;99.90
54516;DHT22;40422;45.892;4.738;2023-01-10T05:09:07;5.80;99.90
54516;DHT22;40422;45.892;4.738;2023-01-10T05:11:33;5.80;99.90
54516;DHT22;40422;45.892;4.738;2023-01-10T05:13:59;5.80;99.90
54516;DHT22;40422;45.892;4.738;2023-01-10T05:16:24;5.80;99.90
54516;DHT22;40422;45.892;4.738;2023-01-10T05:18:50;5.70;99.90
54516;DHT22;40422;45.892;4.738;2023-01-10T05:21:16;5.70;99.90
54516;DHT22;40422;45.892;4.738;2023-01-10T05:23:42;5.60;99.90
54516;DHT22;40422;45.892;4.738;2023-01-10T05:26:13;5.60;99.90
54516;DHT22;40422;45.892;4.738;2023-01-10T05:28:39;5.50;99.90
54516;DHT22;40422;45.892;4.738;2023-01-10T05:31:06;5.50;99.90
54516;DHT22;40422;45.892;4.738;2023-01-10T05:33:32;5.50;99.90
54516;DHT22;40422;45.892;4.738;2023-01-10T05:36:03;5.40;99.90
54516;DHT22;40422;45.892;4.738;2023-01-10T05:38:30;5.40;99.90
54516;DHT22;40422;45.892;4.738;2023-01-10T05:40:57;5.30;99.90
54516;DHT22;40422;45.892;4.738;2023-01-10T05:43:24;5.40;99.90
54516;DHT22;40422;45.892;4.738;2023-01-10T05:45:50;5.30;99.90
54516;DHT22;40422;45.892;4.738;2023-01-10T05:48:16;5.30;99.90
54516;DHT22;40422;45.892;4.738;2023-01-10T05:50:43;5.30;99.90
54516;DHT22;40422;45.892;4.738;2023-01-10T05:53:08;5.20;99.90
54516;DHT22;40422;45.892;4.738;2023-01-10T05:55:34;5.20;99.90
54516;DHT22;40422;45.892;4.738;2023-01-10T05:58:00;5.10;99.90
54516;DHT22;40422;45.892;4.738;2023-01-10T06:00:25;5.10;99.90
54516;DHT22;40422;45.892;4.738;2023-01-10T06:02:54;5.10;99.90
54516;DHT22;40422;45.892;4.738;2023-01-10T06:05:19;5.10;99.90
54516;DHT22;40422;45.892;4.738;2023-01-10T06:07:45;5.10;99.90
54516;DHT22;40422;45.892;4.738;2023-01-10T06:10:11;5.10;99.90
54516;DHT22;40422;45.892;4.738;2023-01-10T06:12:41;5.10;99.90
54516;DHT22;40422;45.892;4.738;2023-01-10T06:15:08;5.10;99.90
54516;DHT22;40422;45.892;4.738;2023-01-10T06:17:34;5.10;99.90
54516;DHT22;40422;45.892;4.738;2023-01-10T06:20:00;5.10;99.90
54516;DHT22;40422;45.892;4.738;2023-01-10T06:22:25;5.10;99.90
54516;DHT22;40422;45.892;4.738;2023-01-10T06:24:52;5.10;99.90
54516;DHT22;40422;45.892;4.738;2023-01-10T06:27:19;5.10;99.90
54516;DHT22;40422;45.892;4.738;2023-01-10T06:29:44;5.10;99.90
54516;DHT22;40422;45.892;4.738;2023-01-10T06:32:10;5.10;99.90
54516;DHT22;40422;45.892;4.738;2023-01-10T06:34:36;5.10;99.90
54516;DHT22;40422;45.892;4.738;2023-01-10T06:37:01;5.00;99.90
54516;DHT22;40422;45.892;4.738;2023-01-10T06:39:27;5.00;99.90
54516;DHT22;40422;45.892;4.738;2023-01-10T06:41:53;5.00;99.90
54516;DHT22;40422;45.892;4.738;2023-01-10T06:44:18;5.00;99.90
54516;DHT22;40422;45.892;4.738;2023-01-10T06:46:44;5.00;99.90
54516;DHT22;40422;45.892;4.738;2023-01-10T06:49:09;5.00;99.90
54516;DHT22;40422;45.892;4.738;2023-01-10T06:51:35;5.10;99.90
54516;DHT22;40422;45.892;4.738;2023-01-10T06:54:00;5.10;99.90
54516;DHT22;40422;45.892;4.738;2023-01-10T06:56:26;5.10;99.90
54516;DHT22;40422;45.892;4.738;2023-01-10T06:58:51;5.10;99.90
54516;DHT22;40422;45.892;4.738;2023-01-10T07:01:19;5.10;99.90
54516;DHT22;40422;45.892;4.738;2023-01-10T07:03:45;5.10;99.90
54516;DHT22;40422;45.892;4.738;2023-01-10T07:06:12;5.10;99.90
54516;DHT22;40422;45.892;4.738;2023-01-10T07:08:39;5.10;99.90
54516;DHT22;40422;45.892;4.738;2023-01-10T07:11:05;5.00;99.90
54516;DHT22;40422;45.892;4.738;2023-01-10T07:13:31;5.00;99.90
54516;DHT22;40422;45.892;4.738;2023-01-10T07:16:05;5.10;99.90
54516;DHT22;40422;45.892;4.738;2023-01-10T07:18:33;5.10;99.90
54516;DHT22;40422;45.892;4.738;2023-01-10T07:21:01;5.10;99.90
54516;DHT22;40422;45.892;4.738;2023-01-10T07:23:26;5.10;99.90
54516;DHT22;40422;45.892;4.738;2023-01-10T07:25:52;5.10;99.90
54516;DHT22;40422;45.892;4.738;2023-01-10T07:28:18;5.10;99.90
54516;DHT22;40422;45.892;4.738;2023-01-10T07:30:43;5.10;99.90
54516;DHT22;40422;45.892;4.738;2023-01-10T07:33:09;5.10;99.90
54516;DHT22;40422;45.892;4.738;2023-01-10T07:35:34;5.10;99.90
54516;DHT22;40422;45.892;4.738;2023-01-10T07:38:00;5.10;99.90
54516;DHT22;40422;45.892;4.738;2023-01-10T07:40:27;5.10;99.90
54516;DHT22;40422;45.892;4.738;2023-01-10T07:42:57;5.10;99.90
54516;DHT22;40422;45.892;4.738;2023-01-10T07:45:23;5.10;99.90
54516;DHT22;40422;45.892;4.738;2023-01-10T07:48:00;5.10;99.90
54516;DHT22;40422;45.892;4.738;2023-01-10T07:50:28;5.20;99.90
54516;DHT22;40422;45.892;4.738;2023-01-10T07:52:55;5.20;99.90
54516;DHT22;40422;45.892;4.738;2023-01-10T07:55:21;5.20;99.90
54516;DHT22;40422;45.892;4.738;2023-01-10T07:57:48;5.20;99.90
54516;DHT22;40422;45.892;4.738;2023-01-10T08:00:14;5.30;99.90
54516;DHT22;40422;45.892;4.738;2023-01-10T08:02:40;5.40;99.90
54516;DHT22;40422;45.892;4.738;2023-01-10T08:05:06;5.50;99.90
54516;DHT22;40422;45.892;4.738;2023-01-10T08:07:32;5.50;99.90
54516;DHT22;40422;45.892;4.738;2023-01-10T08:09:57;5.50;99.90
54516;DHT22;40422;45.892;4.738;2023-01-10T08:12:23;5.50;99.90
54516;DHT22;40422;45.892;4.738;2023-01-10T08:14:52;5.50;99.90
54516;DHT22;40422;45.892;4.738;2023-01-10T08:17:18;5.50;99.90
54516;DHT22;40422;45.892;4.738;2023-01-10T08:19:44;5.70;99.90
54516;DHT22;40422;45.892;4.738;2023-01-10T08:22:11;5.90;99.90
54516;DHT22;40422;45.892;4.738;2023-01-10T08:24:37;5.90;99.90
54516;DHT22;40422;45.892;4.738;2023-01-10T08:27:05;6.00;99.90
54516;DHT22;40422;45.892;4.738;2023-01-10T08:29:31;6.00;99.90
54516;DHT22;40422;45.892;4.738;2023-01-10T08:31:56;6.00;99.90
54516;DHT22;40422;45.892;4.738;2023-01-10T08:34:22;6.10;99.90
54516;DHT22;40422;45.892;4.738;2023-01-10T08:36:52;6.10;99.90
54516;DHT22;40422;45.892;4.738;2023-01-10T08:39:21;6.10;99.90
54516;DHT22;40422;45.892;4.738;2023-01-10T08:41:47;6.10;99.90
54516;DHT22;40422;45.892;4.738;2023-01-10T08:44:13;6.10;99.90
54516;DHT22;40422;45.892;4.738;2023-01-10T08:46:41;6.10;99.90
54516;DHT22;40422;45.892;4.738;2023-01-10T08:49:08;6.10;99.90
54516;DHT22;40422;45.892;4.738;2023-01-10T08:51:33;6.00;99.90
54516;DHT22;40422;45.892;4.738;2023-01-10T08:53:59;6.00;99.90
54516;DHT22;40422;45.892;4.738;2023-01-10T08:56:25;6.00;99.90
54516;DHT22;40422;45.892;4.738;2023-01-10T08:58:50;6.10;99.90
54516;DHT22;40422;45.892;4.738;2023-01-10T09:01:16;6.20;99.90
54516;DHT22;40422;45.892;4.738;2023-01-10T09:03:42;6.40;99.90
54516;DHT22;40422;45.892;4.738;2023-01-10T09:06:08;6.60;99.90
54516;DHT22;40422;45.892;4.738;2023-01-10T09:08:34;6.80;99.90
54516;DHT22;40422;45.892;4.738;2023-01-10T09:11:00;7.00;99.90
54516;DHT22;40422;45.892;4.738;2023-01-10T09:13:27;7.20;99.90
54516;DHT22;40422;45.892;4.738;2023-01-10T09:15:53;7.30;99.90
54516;DHT22;40422;45.892;4.738;2023-01-10T09:18:19;7.50;99.90
54516;DHT22;40422;45.892;4.738;2023-01-10T09:20:45;7.60;99.90
54516;DHT22;40422;45.892;4.738;2023-01-10T09:23:14;7.70;99.90
54516;DHT22;40422;45.892;4.738;2023-01-10T09:25:49;7.80;99.90
54516;DHT22;40422;45.892;4.738;2023-01-10T09:28:15;7.90;99.90
54516;DHT22;40422;45.892;4.738;2023-01-10T09:30:42;8.10;99.90
54516;DHT22;40422;45.892;4.738;2023-01-10T09:33:08;8.30;99.90
54516;DHT22;40422;45.892;4.738;2023-01-10T09:35:37;8.50;99.90
54516;DHT22;40422;45.892;4.738;2023-01-10T09:38:04;8.60;99.90
54516;DHT22;40422;45.892;4.738;2023-01-10T09:48:50;9.00;99.90
54516;DHT22;40422;45.892;4.738;2023-01-10T09:51:26;9.00;99.90
54516;DHT22;40422;45.892;4.738;2023-01-10T09:53:57;8.90;99.90
54516;DHT22;40422;45.892;4.738;2023-01-10T09:56:24;8.90;99.90
54516;DHT22;40422;45.892;4.738;2023-01-10T09:58:50;8.90;99.90
54516;DHT22;40422;45.892;4.738;2023-01-10T10:01:22;8.80;99.90
54516;DHT22;40422;45.892;4.738;2023-01-10T10:04:24;8.90;99.90
54516;DHT22;40422;45.892;4.738;2023-01-10T10:06:52;8.90;99.90
54516;DHT22;40422;45.892;4.738;2023-01-10T10:09:23;9.00;99.90
54516;DHT22;40422;45.892;4.738;2023-01-10T10:20:20;9.40;99.90
54516;DHT22;40422;45.892;4.738;2023-01-10T10:23:25;9.50;99.90
54516;DHT22;40422;45.892;4.738;2023-01-10T10:26:12;9.60;99.90
54516;DHT22;40422;45.892;4.738;2023-01-10T10:36:45;9.80;99.90
54516;DHT22;40422;45.892;4.738;2023-01-10T10:39:21;9.80;99.90
54516;DHT22;40422;45.892;4.738;2023-01-10T10:41:51;9.90;99.90
54516;DHT22;40422;45.892;4.738;2023-01-10T10:46:48;9.90;99.90
54516;DHT22;40422;45.892;4.738;2023-01-10T10:52:13;10.00;99.90
54516;DHT22;40422;45.892;4.738;2023-01-10T10:54:40;10.00;99.90
54516;DHT22;40422;45.892;4.738;2023-01-10T10:57:05;10.00;99.90
54516;DHT22;40422;45.892;4.738;2023-01-10T10:59:31;10.00;99.90
54516;DHT22;40422;45.892;4.738;2023-01-10T11:01:57;10.00;99.90
54516;DHT22;40422;45.892;4.738;2023-01-10T11:04:23;10.00;99.90
54516;DHT22;40422;45.892;4.738;2023-01-10T11:06:49;10.00;99.90
54516;DHT22;40422;45.892;4.738;2023-01-10T11:09:18;10.00;99.90
54516;DHT22;40422;45.892;4.738;2023-01-10T11:11:53;10.10;99.90
54516;DHT22;40422;45.892;4.738;2023-01-10T11:14:44;10.20;99.90
54516;DHT22;40422;45.892;4.738;2023-01-10T11:19:54;10.10;99.90
54516;DHT22;40422;45.892;4.738;2023-01-10T11:22:20;10.10;99.90
54516;DHT22;40422;45.892;4.738;2023-01-10T11:24:53;10.20;99.90
54516;DHT22;40422;45.892;4.738;2023-01-10T11:27:23;10.30;99.90
54516;DHT22;40422;45.892;4.738;2023-01-10T11:29:59;10.40;99.90
54516;DHT22;40422;45.892;4.738;2023-01-10T11:32:33;10.40;99.90
54516;DHT22;40422;45.892;4.738;2023-01-10T11:35:04;10.40;99.90
54516;DHT22;40422;45.892;4.738;2023-01-10T11:37:33;10.40;99.90
54516;DHT22;40422;45.892;4.738;2023-01-10T11:42:34;10.40;99.90
54516;DHT22;40422;45.892;4.738;2023-01-10T11:47:47;10.60;99.90
54516;DHT22;40422;45.892;4.738;2023-01-10T11:50:21;10.80;99.90
54516;DHT22;40422;45.892;4.738;2023-01-10T11:52:49;11.10;99.90
54516;DHT22;40422;45.892;4.738;2023-01-10T11:55:29;11.20;99.90
54516;DHT22;40422;45.892;4.738;2023-01-10T11:58:03;11.20;99.90
54516;DHT22;40422;45.892;4.738;2023-01-10T12:00:37;11.20;99.90
54516;DHT22;40422;45.892;4.738;2023-01-10T12:05:40;11.30;99.90
54516;DHT22;40422;45.892;4.738;2023-01-10T12:08:06;11.30;99.90
54516;DHT22;40422;45.892;4.738;2023-01-10T12:10:34;11.50;99.90
54516;DHT22;40422;45.892;4.738;2023-01-10T12:13:20;11.50;99.90
54516;DHT22;40422;45.892;4.738;2023-01-10T12:15:46;11.60;99.90
54516;DHT22;40422;45.892;4.738;2023-01-10T12:18:13;11.70;99.90
54516;DHT22;40422;45.892;4.738;2023-01-10T12:20:47;11.80;99.90
54516;DHT22;40422;45.892;4.738;2023-01-10T12:23:18;11.80;99.90
54516;DHT22;40422;45.892;4.738;2023-01-10T12:25:46;11.90;99.90
54516;DHT22;40422;45.892;4.738;2023-01-10T12:28:24;11.90;99.90
54516;DHT22;40422;45.892;4.738;2023-01-10T12:30:52;11.90;99.90
54516;DHT22;40422;45.892;4.738;2023-01-10T12:33:32;11.80;99.90
54516;DHT22;40422;45.892;4.738;2023-01-10T12:38:59;11.60;99.90
54516;DHT22;40422;45.892;4.738;2023-01-10T12:44:40;11.40;99.90
54516;DHT22;40422;45.892;4.738;2023-01-10T12:47:16;11.50;99.90
54516;DHT22;40422;45.892;4.738;2023-01-10T12:52:28;11.60;99.90
54516;DHT22;40422;45.892;4.738;2023-01-10T12:54:55;11.60;99.90
54516;DHT22;40422;45.892;4.738;2023-01-10T12:57:34;11.60;99.90
54516;DHT22;40422;45.892;4.738;2023-01-10T13:00:05;11.60;99.90
54516;DHT22;40422;45.892;4.738;2023-01-10T13:02:40;11.60;99.90
54516;DHT22;40422;45.892;4.738;2023-01-10T13:05:17;11.60;99.90
54516;DHT22;40422;45.892;4.738;2023-01-10T13:07:44;11.60;99.90
54516;DHT22;40422;45.892;4.738;2023-01-10T13:10:19;11.40;99.90
54516;DHT22;40422;45.892;4.738;2023-01-10T13:12:50;11.30;99.90
54516;DHT22;40422;45.892;4.738;2023-01-10T13:17:52;11.10;99.90
54516;DHT22;40422;45.892;4.738;2023-01-10T13:22:53;11.10;99.90
54516;DHT22;40422;45.892;4.738;2023-01-10T13:25:32;11.10;99.90
54516;DHT22;40422;45.892;4.738;2023-01-10T13:30:34;11.00;99.90
54516;DHT22;40422;45.892;4.738;2023-01-10T13:33:22;10.90;99.90
54516;DHT22;40422;45.892;4.738;2023-01-10T13:35:48;10.90;99.90
54516;DHT22;40422;45.892;4.738;2023-01-10T13:38:34;10.90;99.90
54516;DHT22;40422;45.892;4.738;2023-01-10T13:41:08;10.90;99.90
54516;DHT22;40422;45.892;4.738;2023-01-10T13:44:04;10.90;99.90
54516;DHT22;40422;45.892;4.738;2023-01-10T13:51:25;10.90;99.90
54516;DHT22;40422;45.892;4.738;2023-01-10T13:53:59;10.80;99.90
54516;DHT22;40422;45.892;4.738;2023-01-10T13:56:33;10.70;99.90
54516;DHT22;40422;45.892;4.738;2023-01-10T13:59:00;10.70;99.90
54516;DHT22;40422;45.892;4.738;2023-01-10T14:01:42;10.70;99.90
54516;DHT22;40422;45.892;4.738;2023-01-10T14:04:27;10.70;99.90
54516;DHT22;40422;45.892;4.738;2023-01-10T14:07:11;10.70;99.90
54516;DHT22;40422;45.892;4.738;2023-01-10T14:09:44;10.70;99.90
54516;DHT22;40422;45.892;4.738;2023-01-10T14:12:27;10.70;99.90
54516;DHT22;40422;45.892;4.738;2023-01-10T14:15:22;10.60;99.90
54516;DHT22;40422;45.892;4.738;2023-01-10T14:18:02;10.60;99.90
54516;DHT22;40422;45.892;4.738;2023-01-10T14:20:31;10.60;99.90
54516;DHT22;40422;45.892;4.738;2023-01-10T14:23:03;10.60;99.90
54516;DHT22;40422;45.892;4.738;2023-01-10T14:25:33;10.60;99.90
54516;DHT22;40422;45.892;4.738;2023-01-10T14:27:59;10.60;99.90
54516;DHT22;40422;45.892;4.738;2023-01-10T14:30:30;10.50;99.90
54516;DHT22;40422;45.892;4.738;2023-01-10T14:33:02;10.50;99.90
54516;DHT22;40422;45.892;4.738;2023-01-10T14:35:35;10.50;99.90
54516;DHT22;40422;45.892;4.738;2023-01-10T14:38:01;10.40;99.90
54516;DHT22;40422;45.892;4.738;2023-01-10T14:42:57;10.40;99.90
54516;DHT22;40422;45.892;4.738;2023-01-10T14:45:33;10.40;99.90
54516;DHT22;40422;45.892;4.738;2023-01-10T14:47:59;10.40;99.90
54516;DHT22;40422;45.892;4.738;2023-01-10T14:50:41;10.40;99.90
54516;DHT22;40422;45.892;4.738;2023-01-10T14:53:24;10.40;99.90
54516;DHT22;40422;45.892;4.738;2023-01-10T14:55:50;10.30;99.90
54516;DHT22;40422;45.892;4.738;2023-01-10T14:58:16;10.20;99.90
54516;DHT22;40422;45.892;4.738;2023-01-10T15:00:43;10.20;99.90
54516;DHT22;40422;45.892;4.738;2023-01-10T15:03:20;10.10;99.90
54516;DHT22;40422;45.892;4.738;2023-01-10T15:05:53;10.00;99.90
54516;DHT22;40422;45.892;4.738;2023-01-10T15:08:27;10.00;99.90
54516;DHT22;40422;45.892;4.738;2023-01-10T15:11:02;10.00;99.90
54516;DHT22;40422;45.892;4.738;2023-01-10T15:13:34;10.00;99.90
54516;DHT22;40422;45.892;4.738;2023-01-10T15:16:01;9.90;99.90
54516;DHT22;40422;45.892;4.738;2023-01-10T15:18:36;9.90;99.90
54516;DHT22;40422;45.892;4.738;2023-01-10T15:21:02;9.90;99.90
54516;DHT22;40422;45.892;4.738;2023-01-10T15:23:36;9.80;99.90
54516;DHT22;40422;45.892;4.738;2023-01-10T15:26:06;9.80;99.90
54516;DHT22;40422;45.892;4.738;2023-01-10T15:28:34;9.80;99.90
54516;DHT22;40422;45.892;4.738;2023-01-10T15:31:01;9.80;99.90
54516;DHT22;40422;45.892;4.738;2023-01-10T15:33:29;9.70;99.90
54516;DHT22;40422;45.892;4.738;2023-01-10T15:36:05;9.70;99.90
54516;DHT22;40422;45.892;4.738;2023-01-10T15:38:34;9.70;99.90
54516;DHT22;40422;45.892;4.738;2023-01-10T15:41:04;9.70;99.90
54516;DHT22;40422;45.892;4.738;2023-01-10T15:43:35;9.60;99.90
54516;DHT22;40422;45.892;4.738;2023-01-10T15:46:03;9.60;99.90
54516;DHT22;40422;45.892;4.738;2023-01-10T15:48:35;9.60;99.90
54516;DHT22;40422;45.892;4.738;2023-01-10T15:51:21;9.60;99.90
54516;DHT22;40422;45.892;4.738;2023-01-10T15:53:58;9.60;99.90
54516;DHT22;40422;45.892;4.738;2023-01-10T15:58:59;9.60;99.90
54516;DHT22;40422;45.892;4.738;2023-01-10T16:01:25;9.60;99.90
54516;DHT22;40422;45.892;4.738;2023-01-10T16:03:57;9.60;99.90
54516;DHT22;40422;45.892;4.738;2023-01-10T16:06:26;9.60;99.90
54516;DHT22;40422;45.892;4.738;2023-01-10T16:08:55;9.60;99.90
54516;DHT22;40422;45.892;4.738;2023-01-10T16:11:33;9.50;99.90
54516;DHT22;40422;45.892;4.738;2023-01-10T16:14:20;9.50;99.90
54516;DHT22;40422;45.892;4.738;2023-01-10T16:16:46;9.50;99.90
54516;DHT22;40422;45.892;4.738;2023-01-10T16:19:11;9.60;99.90
54516;DHT22;40422;45.892;4.738;2023-01-10T16:21:42;9.50;99.90
54516;DHT22;40422;45.892;4.738;2023-01-10T16:24:21;9.50;99.90
54516;DHT22;40422;45.892;4.738;2023-01-10T16:26:48;9.50;99.90
54516;DHT22;40422;45.892;4.738;2023-01-10T16:29:15;9.50;99.90
54516;DHT22;40422;45.892;4.738;2023-01-10T16:31:40;9.50;99.90
54516;DHT22;40422;45.892;4.738;2023-01-10T16:34:07;9.50;99.90
54516;DHT22;40422;45.892;4.738;2023-01-10T16:36:33;9.50;99.90
54516;DHT22;40422;45.892;4.738;2023-01-10T16:39:20;9.50;99.90
54516;DHT22;40422;45.892;4.738;2023-01-10T16:41:46;9.50;99.90
54516;DHT22;40422;45.892;4.738;2023-01-10T16:44:31;9.50;99.90
54516;DHT22;40422;45.892;4.738;2023-01-10T16:46:57;9.50;99.90
54516;DHT22;40422;45.892;4.738;2023-01-10T16:49:23;9.50;99.90
54516;DHT22;40422;45.892;4.738;2023-01-10T16:51:50;9.40;99.90
54516;DHT22;40422;45.892;4.738;2023-01-10T16:54:18;9.40;99.90
54516;DHT22;40422;45.892;4.738;2023-01-10T16:56:45;9.40;99.90
54516;DHT22;40422;45.892;4.738;2023-01-10T16:59:12;9.50;99.90
54516;DHT22;40422;45.892;4.738;2023-01-10T17:01:41;9.40;99.90
54516;DHT22;40422;45.892;4.738;2023-01-10T17:04:11;9.50;99.90
54516;DHT22;40422;45.892;4.738;2023-01-10T17:06:40;9.50;99.90
54516;DHT22;40422;45.892;4.738;2023-01-10T17:09:06;9.40;99.90
54516;DHT22;40422;45.892;4.738;2023-01-10T17:11:36;9.40;99.90
54516;DHT22;40422;45.892;4.738;2023-01-10T17:14:04;9.40;99.90
54516;DHT22;40422;45.892;4.738;2023-01-10T17:16:30;9.40;99.90
54516;DHT22;40422;45.892;4.738;2023-01-10T17:18:56;9.40;99.90
54516;DHT22;40422;45.892;4.738;2023-01-10T17:21:22;9.40;99.90
54516;DHT22;40422;45.892;4.738;2023-01-10T17:23:48;9.40;99.90
54516;DHT22;40422;45.892;4.738;2023-01-10T17:26:16;9.40;99.90
54516;DHT22;40422;45.892;4.738;2023-01-10T17:28:42;9.40;99.90
54516;DHT22;40422;45.892;4.738;2023-01-10T17:31:10;9.40;99.90
54516;DHT22;40422;45.892;4.738;2023-01-10T17:33:36;9.40;99.90
54516;DHT22;40422;45.892;4.738;2023-01-10T17:36:02;9.40;99.90
54516;DHT22;40422;45.892;4.738;2023-01-10T17:38:28;9.40;99.90
54516;DHT22;40422;45.892;4.738;2023-01-10T17:40:57;9.40;99.90
54516;DHT22;40422;45.892;4.738;2023-01-10T17:43:26;9.30;99.90
54516;DHT22;40422;45.892;4.738;2023-01-10T17:45:52;9.30;99.90
54516;DHT22;40422;45.892;4.738;2023-01-10T17:48:19;9.30;99.90
54516;DHT22;40422;45.892;4.738;2023-01-10T17:50:46;9.30;99.90
54516;DHT22;40422;45.892;4.738;2023-01-10T17:53:12;9.30;99.90
54516;DHT22;40422;45.892;4.738;2023-01-10T17:55:45;9.30;99.90
54516;DHT22;40422;45.892;4.738;2023-01-10T17:58:12;9.30;99.90
54516;DHT22;40422;45.892;4.738;2023-01-10T18:00:38;9.30;99.90
54516;DHT22;40422;45.892;4.738;2023-01-10T18:03:04;9.20;99.90
54516;DHT22;40422;45.892;4.738;2023-01-10T18:05:30;9.30;99.90
54516;DHT22;40422;45.892;4.738;2023-01-10T18:07:57;9.20;99.90
54516;DHT22;40422;45.892;4.738;2023-01-10T18:10:22;9.20;99.90
54516;DHT22;40422;45.892;4.738;2023-01-10T18:12:48;9.30;99.90
54516;DHT22;40422;45.892;4.738;2023-01-10T18:15:14;9.20;99.90
54516;DHT22;40422;45.892;4.738;2023-01-10T18:17:40;9.20;99.90
54516;DHT22;40422;45.892;4.738;2023-01-10T18:20:06;9.20;99.90
54516;DHT22;40422;45.892;4.738;2023-01-10T18:22:32;9.30;99.90
54516;DHT22;40422;45.892;4.738;2023-01-10T18:25:16;9.30;99.90
54516;DHT22;40422;45.892;4.738;2023-01-10T18:27:42;9.30;99.90
54516;DHT22;40422;45.892;4.738;2023-01-10T18:30:08;9.30;99.90
54516;DHT22;40422;45.892;4.738;2023-01-10T18:32:34;9.30;99.90
54516;DHT22;40422;45.892;4.738;2023-01-10T18:35:00;9.30;99.90
54516;DHT22;40422;45.892;4.738;2023-01-10T18:37:26;9.30;99.90
54516;DHT22;40422;45.892;4.738;2023-01-10T18:39:51;9.30;99.90
54516;DHT22;40422;45.892;4.738;2023-01-10T18:42:17;9.30;99.90
54516;DHT22;40422;45.892;4.738;2023-01-10T18:44:43;9.20;99.90
54516;DHT22;40422;45.892;4.738;2023-01-10T18:47:09;9.20;99.90
54516;DHT22;40422;45.892;4.738;2023-01-10T18:49:34;9.10;99.90
54516;DHT22;40422;45.892;4.738;2023-01-10T18:52:00;9.10;99.90
54516;DHT22;40422;45.892;4.738;2023-01-10T18:54:26;9.10;99.90
54516;DHT22;40422;45.892;4.738;2023-01-10T18:56:53;9.10;99.90
54516;DHT22;40422;45.892;4.738;2023-01-10T18:59:20;9.10;99.90
54516;DHT22;40422;45.892;4.738;2023-01-10T19:01:46;9.10;99.90
54516;DHT22;40422;45.892;4.738;2023-01-10T19:04:12;9.10;99.90
54516;DHT22;40422;45.892;4.738;2023-01-10T19:06:38;9.10;99.90
54516;DHT22;40422;45.892;4.738;2023-01-10T19:09:03;9.10;99.90
54516;DHT22;40422;45.892;4.738;2023-01-10T19:11:29;9.10;99.90
54516;DHT22;40422;45.892;4.738;2023-01-10T19:13:55;9.10;99.90
54516;DHT22;40422;45.892;4.738;2023-01-10T19:16:28;9.20;99.90
54516;DHT22;40422;45.892;4.738;2023-01-10T19:18:56;9.20;99.90
54516;DHT22;40422;45.892;4.738;2023-01-10T19:21:23;9.20;99.90
54516;DHT22;40422;45.892;4.738;2023-01-10T19:23:51;9.20;99.90
54516;DHT22;40422;45.892;4.738;2023-01-10T19:26:19;9.20;99.90
54516;DHT22;40422;45.892;4.738;2023-01-10T19:28:45;9.20;99.90
54516;DHT22;40422;45.892;4.738;2023-01-10T19:31:14;9.10;99.90
54516;DHT22;40422;45.892;4.738;2023-01-10T19:33:40;9.10;99.90
54516;DHT22;40422;45.892;4.738;2023-01-10T19:36:07;9.20;99.90
54516;DHT22;40422;45.892;4.738;2023-01-10T19:38:33;9.20;99.90
54516;DHT22;40422;45.892;4.738;2023-01-10T19:40:59;9.20;99.90
54516;DHT22;40422;45.892;4.738;2023-01-10T19:43:25;9.20;99.90
54516;DHT22;40422;45.892;4.738;2023-01-10T19:45:50;9.20;99.90
54516;DHT22;40422;45.892;4.738;2023-01-10T19:48:16;9.20;99.90
54516;DHT22;40422;45.892;4.738;2023-01-10T19:50:42;9.20;99.90
54516;DHT22;40422;45.892;4.738;2023-01-10T19:53:07;9.20;99.90
54516;DHT22;40422;45.892;4.738;2023-01-10T19:55:33;9.10;99.90
54516;DHT22;40422;45.892;4.738;2023-01-10T19:57:59;9.10;99.90
54516;DHT22;40422;45.892;4.738;2023-01-10T20:00:25;9.10;99.90
54516;DHT22;40422;45.892;4.738;2023-01-10T20:02:51;9.10;99.90
54516;DHT22;40422;45.892;4.738;2023-01-10T20:05:17;9.10;99.90
54516;DHT22;40422;45.892;4.738;2023-01-10T20:07:42;9.10;99.90
54516;DHT22;40422;45.892;4.738;2023-01-10T20:10:12;9.10;99.90
54516;DHT22;40422;45.892;4.738;2023-01-10T20:12:37;9.10;99.90
54516;DHT22;40422;45.892;4.738;2023-01-10T20:15:03;9.10;99.90
54516;DHT22;40422;45.892;4.738;2023-01-10T20:17:30;9.10;99.90
54516;DHT22;40422;45.892;4.738;2023-01-10T20:19:57;9.10;99.90
54516;DHT22;40422;45.892;4.738;2023-01-10T20:22:25;9.10;99.90
54516;DHT22;40422;45.892;4.738;2023-01-10T20:24:51;9.10;99.90
54516;DHT22;40422;45.892;4.738;2023-01-10T20:27:17;9.10;99.90
54516;DHT22;40422;45.892;4.738;2023-01-10T20:29:43;9.00;99.90
54516;DHT22;40422;45.892;4.738;2023-01-10T20:32:10;9.10;99.90
54516;DHT22;40422;45.892;4.738;2023-01-10T20:34:38;9.00;99.90
54516;DHT22;40422;45.892;4.738;2023-01-10T20:37:04;9.00;99.90
54516;DHT22;40422;45.892;4.738;2023-01-10T20:39:29;9.00;99.90
54516;DHT22;40422;45.892;4.738;2023-01-10T20:41:56;8.90;99.90
54516;DHT22;40422;45.892;4.738;2023-01-10T20:44:22;8.90;99.90
54516;DHT22;40422;45.892;4.738;2023-01-10T20:46:47;8.80;99.90
54516;DHT22;40422;45.892;4.738;2023-01-10T20:49:13;8.80;99.90
54516;DHT22;40422;45.892;4.738;2023-01-10T20:51:39;8.70;99.90
54516;DHT22;40422;45.892;4.738;2023-01-10T20:54:05;8.70;99.90
54516;DHT22;40422;45.892;4.738;2023-01-10T20:56:32;8.60;99.90
54516;DHT22;40422;45.892;4.738;2023-01-10T20:59:00;8.60;99.90
